createdAt,value
2023-03-15T00:02:10.840Z,101153.88
2023-03-15T00:04:38.568Z,101158.28
2023-03-15T00:07:10.504Z,101163.31
2023-03-15T00:09:38.225Z,101164.25
2023-03-15T00:12:06.828Z,101158.03
2023-03-15T00:14:34.557Z,101165.72
2023-03-15T00:17:02.371Z,101153.97
2023-03-15T00:19:30.148Z,101165.63
2023-03-15T00:21:57.881Z,101179.50
2023-03-15T00:24:27.012Z,101184.97
2023-03-15T00:26:54.776Z,101183.47
2023-03-15T00:29:22.499Z,101191.03
2023-03-15T00:31:51.660Z,101193.47
2023-03-15T00:34:23.822Z,101195.16
2023-03-15T00:36:53.632Z,101190.69
2023-03-15T00:39:21.458Z,101193.88
2023-03-15T00:41:50.515Z,101191.81
2023-03-15T00:44:18.378Z,101193.25
2023-03-15T00:46:46.151Z,101193.09
2023-03-15T00:49:13.931Z,101200.00
2023-03-15T00:51:41.680Z,101198.13
2023-03-15T00:54:13.712Z,101198.81
2023-03-15T00:56:41.938Z,101205.13
2023-03-15T00:59:11.040Z,101202.72
2023-03-15T01:01:41.165Z,101205.41
2023-03-15T01:04:08.922Z,101201.84
2023-03-15T01:06:36.670Z,101204.59
2023-03-15T01:09:05.765Z,101200.28
2023-03-15T01:11:33.542Z,101202.44
2023-03-15T01:14:01.319Z,101205.72
2023-03-15T01:16:30.876Z,101211.88
2023-03-15T01:18:58.799Z,101214.47
2023-03-15T01:21:26.491Z,101220.81
2023-03-15T01:23:55.106Z,101223.50
2023-03-15T01:26:23.407Z,101228.00
2023-03-15T01:28:51.393Z,101226.38
2023-03-15T01:31:22.828Z,101224.63
2023-03-15T01:33:52.444Z,101223.94
2023-03-15T01:36:20.434Z,101232.00
2023-03-15T01:38:49.524Z,101234.78
2023-03-15T01:41:19.295Z,101233.78
2023-03-15T01:43:48.640Z,101240.16
2023-03-15T01:46:24.663Z,101250.09
2023-03-15T01:48:58.161Z,101251.13
2023-03-15T01:51:34.227Z,101253.03
2023-03-15T01:54:05.674Z,101259.53
2023-03-15T01:56:35.871Z,101259.59
2023-03-15T01:59:07.019Z,101264.22
2023-03-15T02:01:37.846Z,101266.09
2023-03-15T02:04:11.293Z,101270.69
2023-03-15T02:06:39.611Z,101276.22
2023-03-15T02:09:14.194Z,101276.31
2023-03-15T02:11:43.474Z,101273.72
2023-03-15T02:14:13.603Z,101276.47
2023-03-15T02:16:41.476Z,101270.31
2023-03-15T02:19:19.655Z,101281.00
2023-03-15T02:21:59.100Z,101280.19
2023-03-15T02:24:35.086Z,101286.53
2023-03-15T02:27:03.640Z,101286.53
2023-03-15T02:29:33.300Z,101292.78
2023-03-15T02:32:04.476Z,101288.41
2023-03-15T02:34:32.320Z,101293.88
2023-03-15T02:37:00.101Z,101293.97
2023-03-15T02:39:27.807Z,101311.09
2023-03-15T02:41:58.287Z,101306.78
2023-03-15T02:44:31.572Z,101308.50
2023-03-15T02:47:05.418Z,101307.81
2023-03-15T02:49:36.543Z,101314.13
2023-03-15T02:52:04.749Z,101308.75
2023-03-15T02:54:34.438Z,101319.53
2023-03-15T02:57:02.242Z,101313.31
2023-03-15T02:59:31.038Z,101319.63
2023-03-15T03:01:58.864Z,101320.75
2023-03-15T03:04:27.948Z,101332.34
2023-03-15T03:06:55.750Z,101334.31
2023-03-15T03:09:24.267Z,101333.56
2023-03-15T03:11:52.108Z,101352.34
2023-03-15T03:14:19.826Z,101359.59
2023-03-15T03:16:48.360Z,101360.72
2023-03-15T03:19:16.100Z,101378.69
2023-03-15T03:21:45.426Z,101376.22
2023-03-15T03:24:16.037Z,101372.75
2023-03-15T03:26:46.234Z,101371.03
2023-03-15T03:29:16.743Z,101379.09
2023-03-15T03:31:45.197Z,101368.50
2023-03-15T03:34:15.600Z,101378.38
2023-03-15T03:36:45.221Z,101382.94
2023-03-15T03:39:13.085Z,101385.63
2023-03-15T03:41:41.165Z,101392.81
2023-03-15T03:44:08.901Z,101393.81
2023-03-15T03:46:36.655Z,101398.31
2023-03-15T03:49:04.462Z,101395.63
2023-03-15T03:51:34.081Z,101407.22
2023-03-15T03:54:03.441Z,101406.38
2023-03-15T03:56:31.298Z,101409.91
2023-03-15T03:58:59.035Z,101407.16
2023-03-15T04:01:26.822Z,101419.78
2023-03-15T04:03:54.726Z,101417.84
2023-03-15T04:06:23.491Z,101416.13
2023-03-15T04:08:51.293Z,101418.88
2023-03-15T04:11:20.426Z,101425.34
2023-03-15T04:13:49.383Z,101432.59
2023-03-15T04:16:17.396Z,101422.53
2023-03-15T04:18:45.191Z,101430.50
2023-03-15T04:21:12.927Z,101442.03
2023-03-15T04:23:40.766Z,101454.78
2023-03-15T04:26:08.510Z,101452.88
2023-03-15T04:28:38.932Z,101459.13
2023-03-15T04:31:10.585Z,101458.25
2023-03-15T04:33:38.450Z,101460.16
2023-03-15T04:36:06.631Z,101460.00
2023-03-15T04:38:35.595Z,101474.13
2023-03-15T04:41:10.787Z,101474.31
2023-03-15T04:43:40.288Z,101478.84
2023-03-15T04:46:08.294Z,101475.22
2023-03-15T04:48:36.562Z,101477.66
2023-03-15T04:51:04.458Z,101480.19
2023-03-15T04:53:32.187Z,101487.22
2023-03-15T04:55:59.998Z,101487.94
2023-03-15T04:58:27.734Z,101494.88
2023-03-15T05:00:56.856Z,101494.75
2023-03-15T05:03:26.212Z,101502.28
2023-03-15T05:05:53.976Z,101505.06
2023-03-15T05:08:21.685Z,101506.72
2023-03-15T05:10:49.400Z,101507.50
2023-03-15T05:13:18.904Z,101506.56
2023-03-15T05:15:46.649Z,101505.56
2023-03-15T05:18:15.725Z,101500.19
2023-03-15T05:20:43.410Z,101504.63
2023-03-15T05:23:11.192Z,101512.59
2023-03-15T05:25:38.934Z,101513.44
2023-03-15T05:28:07.236Z,101525.06
2023-03-15T05:30:35.049Z,101525.91
2023-03-15T05:33:04.762Z,101528.59
2023-03-15T05:35:33.865Z,101527.94
2023-03-15T05:38:01.625Z,101534.31
2023-03-15T05:40:30.469Z,101534.25
2023-03-15T05:42:58.258Z,101537.78
2023-03-15T05:45:26.032Z,101536.84
2023-03-15T05:47:53.741Z,101540.41
2023-03-15T05:50:22.009Z,101538.59
2023-03-15T05:52:53.679Z,101544.84
2023-03-15T05:55:22.044Z,101550.13
2023-03-15T05:57:49.904Z,101556.25
2023-03-15T06:00:18.899Z,101554.47
2023-03-15T06:02:47.869Z,101557.06
2023-03-15T06:05:15.874Z,101560.56
2023-03-15T06:07:43.604Z,101561.41
2023-03-15T06:10:14.084Z,101579.25
2023-03-15T06:12:41.903Z,101589.53
2023-03-15T06:15:10.850Z,101590.47
2023-03-15T06:17:38.646Z,101600.34
2023-03-15T06:20:07.435Z,101605.69
2023-03-15T06:22:35.302Z,101608.59
2023-03-15T06:25:03.676Z,101622.16
2023-03-15T06:27:33.246Z,101626.06
2023-03-15T06:30:01.001Z,101628.66
2023-03-15T06:32:28.903Z,101634.75
2023-03-15T06:34:56.798Z,101632.28
2023-03-15T06:37:34.657Z,101642.63
2023-03-15T06:40:05.978Z,101649.75
2023-03-15T06:42:35.715Z,101650.63
2023-03-15T06:45:03.552Z,101648.88
2023-03-15T06:47:31.314Z,101656.84
2023-03-15T06:49:59.289Z,101662.22
2023-03-15T06:52:27.456Z,101666.84
2023-03-15T06:54:55.287Z,101670.34
2023-03-15T06:57:23.150Z,101674.03
2023-03-15T06:59:54.010Z,101686.53
2023-03-15T07:02:22.205Z,101684.66
2023-03-15T07:04:50.454Z,101681.91
2023-03-15T07:07:18.190Z,101675.63
2023-03-15T07:09:48.366Z,101690.84
2023-03-15T07:12:16.074Z,101695.19
2023-03-15T07:14:43.782Z,101698.66
2023-03-15T07:17:12.941Z,101708.41
2023-03-15T07:19:50.119Z,101709.09
2023-03-15T07:22:22.955Z,101707.13
2023-03-15T07:24:51.278Z,101721.19
2023-03-15T07:27:19.614Z,101712.97
2023-03-15T07:29:47.517Z,101722.50
2023-03-15T07:32:16.872Z,101723.19
2023-03-15T07:34:44.909Z,101719.25
2023-03-15T07:37:12.813Z,101713.47
2023-03-15T07:39:41.321Z,101717.16
2023-03-15T07:42:09.607Z,101721.22
2023-03-15T07:44:37.384Z,101725.16
2023-03-15T07:47:05.548Z,101725.50
2023-03-15T07:49:35.325Z,101723.03
2023-03-15T07:52:03.579Z,101731.50
2023-03-15T07:54:31.984Z,101737.13
2023-03-15T07:56:59.819Z,101741.25
2023-03-15T07:59:27.600Z,101750.53
2023-03-15T08:01:55.645Z,101747.47
2023-03-15T08:04:23.442Z,101749.53
2023-03-15T08:06:53.909Z,101754.38
2023-03-15T08:09:21.620Z,101759.19
2023-03-15T08:11:49.408Z,101765.78
2023-03-15T08:14:17.207Z,101758.94
2023-03-15T08:16:45.109Z,101760.13
2023-03-15T08:19:12.941Z,101775.63
2023-03-15T08:21:45.419Z,101775.91
2023-03-15T08:24:15.403Z,101781.75
2023-03-15T08:26:45.565Z,101782.56
2023-03-15T08:29:13.314Z,101777.69
2023-03-15T08:31:41.572Z,101780.84
2023-03-15T08:34:09.360Z,101781.97
2023-03-15T08:36:37.137Z,101786.19
2023-03-15T08:39:05.606Z,101791.81
2023-03-15T08:41:34.936Z,101792.38
2023-03-15T08:44:03.813Z,101793.69
2023-03-15T08:46:33.020Z,101802.09
2023-03-15T08:49:01.172Z,101796.13
2023-03-15T08:51:30.864Z,101805.25
2023-03-15T08:53:58.580Z,101796.63
2023-03-15T08:56:26.326Z,101788.19
2023-03-15T08:58:55.427Z,101794.53
2023-03-15T09:01:23.136Z,101803.84
2023-03-15T09:03:51.631Z,101800.28
2023-03-15T09:06:19.392Z,101799.50
2023-03-15T09:08:47.144Z,101813.66
2023-03-15T09:11:15.220Z,101798.28
2023-03-15T09:13:43.065Z,101794.03
2023-03-15T09:16:12.262Z,101800.81
2023-03-15T09:18:40.761Z,101797.53
2023-03-15T09:21:08.587Z,101787.72
2023-03-15T09:23:36.315Z,101783.38
2023-03-15T09:26:04.248Z,101795.94
2023-03-15T09:28:32.006Z,101784.19
2023-03-15T09:31:00.227Z,101796.25
2023-03-15T09:33:29.484Z,101797.00
2023-03-15T09:35:57.290Z,101794.91
2023-03-15T09:38:25.059Z,101807.81
2023-03-15T09:40:58.671Z,101801.56
2023-03-15T09:43:44.659Z,101813.06
2023-03-15T09:46:30.610Z,101806.75
2023-03-15T09:49:06.117Z,101815.16
2023-03-15T09:51:40.624Z,101806.44
2023-03-15T09:54:13.179Z,101807.34
2023-03-15T09:56:47.228Z,101807.06
2023-03-15T09:59:17.720Z,101808.00
2023-03-15T10:01:46.667Z,101808.38
2023-03-15T10:04:25.558Z,101809.97
2023-03-15T10:06:57.085Z,101804.47
2023-03-15T10:09:29.315Z,101819.41
2023-03-15T10:12:06.461Z,101812.69
2023-03-15T10:14:53.670Z,101813.91
2023-03-15T10:17:33.544Z,101819.34
2023-03-15T10:20:09.619Z,101820.00
2023-03-15T10:22:43.905Z,101815.13
2023-03-15T10:25:17.878Z,101822.19
2023-03-15T10:27:51.422Z,101827.06
2023-03-15T10:30:22.517Z,101828.78
2023-03-15T10:32:54.286Z,101829.22
2023-03-15T10:35:23.579Z,101839.97
2023-03-15T10:37:51.368Z,101841.78
2023-03-15T10:40:40.276Z,101846.56
2023-03-15T10:43:15.595Z,101836.44
2023-03-15T10:45:43.346Z,101846.66
2023-03-15T10:48:11.221Z,101846.78
2023-03-15T10:50:41.215Z,101850.16
2023-03-15T10:53:20.594Z,101857.56
2023-03-15T10:55:49.758Z,101861.03
2023-03-15T10:58:27.529Z,101859.31
2023-03-15T11:01:02.297Z,101858.25
2023-03-15T11:03:31.245Z,101858.03
2023-03-15T11:06:00.582Z,101855.53
2023-03-15T11:08:38.943Z,101862.81
2023-03-15T11:11:07.812Z,101865.59
2023-03-15T11:13:36.878Z,101863.75
2023-03-15T11:16:07.412Z,101874.72
2023-03-15T11:18:38.944Z,101873.03
2023-03-15T11:21:11.712Z,101881.16
2023-03-15T11:23:42.577Z,101883.94
2023-03-15T11:26:29.420Z,101875.34
2023-03-15T11:29:02.492Z,101872.22
2023-03-15T11:31:31.277Z,101876.16
2023-03-15T11:34:04.463Z,101870.72
2023-03-15T11:36:38.002Z,101875.81
2023-03-15T11:39:06.410Z,101864.91
2023-03-15T11:41:38.089Z,101869.53
2023-03-15T11:44:16.738Z,101871.06
2023-03-15T11:46:49.782Z,101859.94
2023-03-15T11:49:24.760Z,101869.47
2023-03-15T11:51:56.832Z,101867.75
2023-03-15T11:54:29.719Z,101866.78
2023-03-15T11:56:58.774Z,101857.75
2023-03-15T11:59:29.183Z,101856.63
2023-03-15T12:01:59.490Z,101860.88
2023-03-15T12:04:40.709Z,101868.78
2023-03-15T12:07:29.127Z,101871.25
2023-03-15T12:09:58.740Z,101867.31
2023-03-15T12:12:38.659Z,101874.03
2023-03-15T12:15:32.713Z,101875.63
2023-03-15T12:18:06.394Z,101862.56
2023-03-15T12:20:37.788Z,101866.94
2023-03-15T12:23:26.906Z,101866.56
2023-03-15T12:25:57.421Z,101881.19
2023-03-15T12:28:29.827Z,101888.13
2023-03-15T12:31:01.832Z,101875.50
2023-03-15T12:34:23.810Z,101871.19
2023-03-15T12:36:56.871Z,101867.50
2023-03-15T12:39:42.038Z,101868.25
2023-03-15T12:42:15.174Z,101869.75
2023-03-15T12:44:44.229Z,101856.41
2023-03-15T12:47:12.834Z,101868.53
2023-03-15T12:49:42.985Z,101851.97
2023-03-15T12:52:28.874Z,101855.44
2023-03-15T12:55:04.820Z,101855.09
2023-03-15T12:57:38.974Z,101860.38
2023-03-15T13:00:14.433Z,101852.72
2023-03-15T13:02:46.984Z,101857.81
2023-03-15T13:05:19.432Z,101846.06
2023-03-15T13:07:59.100Z,101846.28
2023-03-15T13:11:11.218Z,101842.09
2023-03-15T13:14:01.750Z,101838.38
2023-03-15T13:16:38.013Z,101828.47
2023-03-15T13:19:17.949Z,101834.66
2023-03-15T13:22:01.727Z,101836.78
2023-03-15T13:24:38.978Z,101839.00
2023-03-15T13:27:19.524Z,101844.94
2023-03-15T13:29:47.440Z,101841.72
2023-03-15T13:32:18.253Z,101851.38
2023-03-15T13:34:48.142Z,101850.28
2023-03-15T13:37:18.851Z,101848.03
2023-03-15T13:40:00.953Z,101850.38
2023-03-15T13:42:30.743Z,101850.50
2023-03-15T13:45:13.115Z,101851.13
2023-03-15T13:47:42.370Z,101849.66
2023-03-15T13:50:16.034Z,101846.31
2023-03-15T13:52:44.835Z,101846.31
2023-03-15T13:55:14.745Z,101855.59
2023-03-15T13:57:44.303Z,101851.28
2023-03-15T14:00:17.166Z,101847.81
2023-03-15T14:02:49.243Z,101856.94
2023-03-15T14:05:20.056Z,101852.88
2023-03-15T14:07:49.669Z,101848.16
2023-03-15T14:10:28.997Z,101853.25
2023-03-15T14:12:59.596Z,101856.72
2023-03-15T14:15:36.351Z,101850.75
2023-03-15T14:18:17.070Z,101856.69
2023-03-15T14:20:47.126Z,101861.28
2023-03-15T14:23:18.901Z,101860.78
2023-03-15T14:25:53.394Z,101853.84
2023-03-15T14:28:25.548Z,101849.66
2023-03-15T14:30:55.912Z,101854.69
2023-03-15T14:33:34.347Z,101854.69
2023-03-15T14:36:04.873Z,101852.72
2023-03-15T14:38:35.610Z,101850.75
2023-03-15T14:41:33.093Z,101848.03
2023-03-15T14:44:03.189Z,101845.81
2023-03-15T14:46:32.801Z,101838.78
2023-03-15T14:49:00.923Z,101831.59
2023-03-15T14:51:30.402Z,101839.75
2023-03-15T14:54:00.002Z,101842.34
2023-03-15T14:56:27.935Z,101841.44
2023-03-15T14:58:55.714Z,101835.16
2023-03-15T15:01:28.175Z,101824.28
2023-03-15T15:03:59.823Z,101829.72
2023-03-15T15:06:29.250Z,101839.63
2023-03-15T15:08:58.792Z,101836.13
2023-03-15T15:11:26.777Z,101828.59
2023-03-15T15:13:54.885Z,101830.69
2023-03-15T15:16:22.747Z,101830.06
2023-03-15T15:18:52.107Z,101828.31
2023-03-15T15:21:24.653Z,101827.00
2023-03-15T15:23:58.819Z,101822.41
2023-03-15T15:26:29.048Z,101814.25
2023-03-15T15:28:57.549Z,101811.53
2023-03-15T15:31:28.025Z,101811.53
2023-03-15T15:33:58.019Z,101811.66
2023-03-15T15:36:29.902Z,101808.06
2023-03-15T15:39:01.202Z,101807.22
2023-03-15T15:41:31.600Z,101797.44
2023-03-15T15:43:59.796Z,101792.25
2023-03-15T15:46:28.023Z,101791.88
2023-03-15T15:48:57.219Z,101793.13
2023-03-15T15:51:28.882Z,101792.50
2023-03-15T15:53:58.934Z,101798.78
2023-03-15T15:56:32.770Z,101803.59
2023-03-15T15:59:00.999Z,101792.31
2023-03-15T16:01:29.067Z,101795.03
2023-03-15T16:03:58.391Z,101789.81
2023-03-15T16:06:26.607Z,101795.03
2023-03-15T16:08:55.869Z,101790.56
2023-03-15T16:11:23.700Z,101792.53
2023-03-15T16:13:54.134Z,101795.50
2023-03-15T16:16:22.715Z,101798.44
2023-03-15T16:18:51.032Z,101799.56
2023-03-15T16:21:28.159Z,101800.66
2023-03-15T16:23:59.925Z,101810.13
2023-03-15T16:26:28.259Z,101803.09
2023-03-15T16:28:56.522Z,101812.97
2023-03-15T16:31:24.418Z,101802.59
2023-03-15T16:33:52.227Z,101801.19
2023-03-15T16:36:23.364Z,101816.75
2023-03-15T16:38:51.163Z,101798.81
2023-03-15T16:41:19.109Z,101809.81
2023-03-15T16:43:49.245Z,101813.63
2023-03-15T16:46:18.359Z,101802.13
2023-03-15T16:48:46.254Z,101803.34
2023-03-15T16:51:16.652Z,101809.75
2023-03-15T16:53:46.148Z,101809.00
2023-03-15T16:56:15.517Z,101809.13
2023-03-15T16:58:44.504Z,101812.94
2023-03-15T17:01:12.404Z,101803.19
2023-03-15T17:03:40.286Z,101814.03
2023-03-15T17:06:17.546Z,101807.84
2023-03-15T17:08:47.234Z,101809.72
2023-03-15T17:11:15.268Z,101812.97
2023-03-15T17:13:43.280Z,101808.00
2023-03-15T17:16:13.226Z,101812.91
2023-03-15T17:18:44.666Z,101807.59
2023-03-15T17:21:15.313Z,101801.75
2023-03-15T17:23:44.418Z,101802.84
2023-03-15T17:26:16.870Z,101805.81
2023-03-15T17:28:45.349Z,101799.84
2023-03-15T17:31:31.068Z,101806.72
2023-03-15T17:33:59.565Z,101817.13
2023-03-15T17:36:31.247Z,101810.84
2023-03-15T17:38:59.696Z,101815.38
2023-03-15T17:41:33.211Z,101812.03
2023-03-15T17:44:01.689Z,101821.38
2023-03-15T17:46:31.508Z,101823.53
2023-03-15T17:49:00.623Z,101823.88
2023-03-15T17:51:31.395Z,101822.56
2023-03-15T17:54:00.407Z,101822.91
2023-03-15T17:56:31.642Z,101828.44
2023-03-15T17:59:02.132Z,101827.91
2023-03-15T18:01:30.995Z,101830.94
2023-03-15T18:03:59.336Z,101833.88
2023-03-15T18:06:27.898Z,101826.78
2023-03-15T18:08:56.010Z,101836.00
2023-03-15T18:11:27.056Z,101829.09
2023-03-15T18:13:57.124Z,101834.81
2023-03-15T18:16:25.745Z,101826.16
2023-03-15T18:18:54.131Z,101836.22
2023-03-15T18:21:25.023Z,101829.38
2023-03-15T18:23:53.498Z,101836.91
2023-03-15T18:26:23.078Z,101828.91
2023-03-15T18:28:51.597Z,101832.81
2023-03-15T18:31:24.362Z,101832.03
2023-03-15T18:33:53.941Z,101833.25
2023-03-15T18:36:21.959Z,101826.19
2023-03-15T18:38:50.125Z,101830.94
2023-03-15T18:41:20.929Z,101827.59
2023-03-15T18:43:51.567Z,101819.78
2023-03-15T18:46:22.821Z,101820.06
2023-03-15T18:48:53.463Z,101822.91
2023-03-15T18:51:25.256Z,101825.91
2023-03-15T18:53:53.844Z,101820.78
2023-03-15T18:56:23.960Z,101821.31
2023-03-15T18:58:53.167Z,101821.75
2023-03-15T19:01:24.693Z,101828.41
2023-03-15T19:03:53.514Z,101825.94
2023-03-15T19:06:22.656Z,101826.13
2023-03-15T19:08:53.552Z,101824.72
2023-03-15T19:11:23.845Z,101819.38
2023-03-15T19:13:51.954Z,101817.75
2023-03-15T19:16:21.051Z,101821.63
2023-03-15T19:18:51.036Z,101816.50
2023-03-15T19:21:19.447Z,101810.56
2023-03-15T19:23:47.452Z,101816.25
2023-03-15T19:26:15.510Z,101806.50
2023-03-15T19:28:43.672Z,101798.69
2023-03-15T19:31:11.647Z,101799.75
2023-03-15T19:33:39.849Z,101809.06
2023-03-15T19:36:10.328Z,101806.75
2023-03-15T19:38:39.071Z,101804.34
2023-03-15T19:41:09.721Z,101805.97
2023-03-15T19:43:42.299Z,101811.59
2023-03-15T19:46:14.084Z,101811.59
2023-03-15T19:48:42.561Z,101798.53
2023-03-15T19:51:11.808Z,101806.66
2023-03-15T19:53:39.614Z,101806.09
2023-03-15T19:56:09.554Z,101801.06
2023-03-15T19:58:37.435Z,101800.41
2023-03-15T20:01:05.771Z,101799.63
2023-03-15T20:03:34.985Z,101796.44
2023-03-15T20:06:08.052Z,101811.97
2023-03-15T20:08:37.198Z,101813.91
2023-03-15T20:11:06.587Z,101817.56
2023-03-15T20:13:35.320Z,101810.63
2023-03-15T20:16:03.901Z,101812.53
2023-03-15T20:18:32.390Z,101804.75
2023-03-15T20:21:02.537Z,101804.06
2023-03-15T20:23:30.450Z,101811.38
2023-03-15T20:26:09.813Z,101803.41
2023-03-15T20:28:38.011Z,101798.28
2023-03-15T20:31:09.967Z,101801.81
2023-03-15T20:33:37.820Z,101802.88
2023-03-15T20:36:06.911Z,101790.72
2023-03-15T20:38:37.147Z,101797.97
2023-03-15T20:41:07.732Z,101800.00
2023-03-15T20:43:35.813Z,101797.38
2023-03-15T20:46:04.517Z,101786.75
2023-03-15T20:48:34.837Z,101794.97
2023-03-15T20:51:04.056Z,101778.47
2023-03-15T20:53:33.533Z,101788.78
2023-03-15T20:56:02.064Z,101798.81
2023-03-15T20:58:36.641Z,101788.03
2023-03-15T21:01:06.501Z,101781.06
2023-03-15T21:03:38.003Z,101797.47
2023-03-15T21:06:07.446Z,101788.56
2023-03-15T21:08:36.425Z,101786.16
2023-03-15T21:11:08.772Z,101788.84
2023-03-15T21:13:38.861Z,101782.66
2023-03-15T21:16:07.974Z,101776.63
2023-03-15T21:18:37.842Z,101788.44
2023-03-15T21:21:08.706Z,101778.69
2023-03-15T21:23:40.345Z,101773.50
2023-03-15T21:26:11.200Z,101776.28
2023-03-15T21:28:41.737Z,101771.06
2023-03-15T21:31:10.287Z,101767.53
2023-03-15T21:33:38.569Z,101765.91
2023-03-15T21:36:07.538Z,101757.91
2023-03-15T21:38:36.580Z,101761.66
2023-03-15T21:41:09.437Z,101758.97
2023-03-15T21:43:38.102Z,101764.63
2023-03-15T21:46:12.070Z,101764.75
2023-03-15T21:48:42.662Z,101759.59
2023-03-15T21:51:16.275Z,101767.81
2023-03-15T21:53:46.306Z,101760.81
2023-03-15T21:56:14.686Z,101758.59
2023-03-15T21:58:42.878Z,101759.44
2023-03-15T22:01:13.880Z,101757.03
2023-03-15T22:03:42.511Z,101749.13
2023-03-15T22:06:10.312Z,101745.56
2023-03-15T22:08:38.058Z,101749.38
2023-03-15T22:11:06.336Z,101744.88
2023-03-15T22:13:34.395Z,101741.75
2023-03-15T22:16:02.476Z,101758.88
2023-03-15T22:18:31.765Z,101749.25
2023-03-15T22:20:59.547Z,101746.72
2023-03-15T22:23:27.539Z,101741.53
2023-03-15T22:25:57.078Z,101747.00
2023-03-15T22:28:26.133Z,101747.25
2023-03-15T22:30:54.621Z,101745.63
2023-03-15T22:33:23.239Z,101749.34
2023-03-15T22:35:56.898Z,101739.69
2023-03-15T22:38:25.863Z,101744.97
2023-03-15T22:41:01.689Z,101741.44
2023-03-15T22:43:29.447Z,101738.94
2023-03-15T22:45:57.395Z,101739.00
2023-03-15T22:48:26.088Z,101730.41
2023-03-15T22:50:59.984Z,101731.16
2023-03-15T22:53:27.630Z,101725.88
2023-03-15T22:55:55.702Z,101724.84
2023-03-15T22:58:23.815Z,101725.97
2023-03-15T23:00:51.942Z,101719.88
2023-03-15T23:03:20.780Z,101717.97
2023-03-15T23:05:48.649Z,101724.41
2023-03-15T23:08:17.856Z,101719.09
2023-03-15T23:10:45.619Z,101721.88
2023-03-15T23:13:13.358Z,101721.19
2023-03-15T23:15:41.141Z,101725.63
2023-03-15T23:18:09.597Z,101731.00
2023-03-15T23:20:38.744Z,101726.56
2023-03-15T23:23:07.366Z,101720.59
2023-03-15T23:25:38.958Z,101723.28
2023-03-15T23:28:07.275Z,101722.38
2023-03-15T23:30:36.425Z,101715.19
2023-03-15T23:33:08.711Z,101714.31
2023-03-15T23:35:37.127Z,101712.50
2023-03-15T23:38:04.939Z,101706.94
2023-03-15T23:40:32.691Z,101710.41
2023-03-15T23:43:01.948Z,101700.69
2023-03-15T23:45:30.108Z,101707.03
2023-03-15T23:47:58.488Z,101706.16
2023-03-15T23:50:27.142Z,101706.94
2023-03-15T23:52:56.561Z,101704.22
2023-03-15T23:55:24.907Z,101698.00
2023-03-15T23:57:52.968Z,101687.31
